Airport View

Enter AWOS ICAO identifier for current METAR.

ex. KFNL

KOOA 300500Z AUTO 32006KT 10SM SCT120 M01/M02 A3019 RMK AO2 T10061020

30 Oct 2020 05:11

Frequency: 118.625

Phone: 641-933-4312

Other Area AWOS: KOTM - KPEA - KFFL - KOXV

TAF KOTM 292320Z 3000/3024 33009KT P6SM BKN035 FM300200 33006KT P6SM SCT035 FM300800 VRB03KT P6SM FEW070 FM301600 16006KT P6SM FEW070